createdAt,value
2019-02-21T00:01:01.035Z,69.00
2019-02-21T00:05:07.753Z,69.10
2019-02-21T00:09:15.546Z,73.50
2019-02-21T00:13:20.894Z,70.60
2019-02-21T00:17:26.598Z,69.20
2019-02-21T00:21:32.290Z,70.10
2019-02-21T00:25:37.999Z,69.40
2019-02-21T00:29:43.704Z,70.20
2019-02-21T00:33:49.384Z,69.30
2019-02-21T00:37:55.087Z,70.50
2019-02-21T00:42:02.527Z,71.10
2019-02-21T00:46:08.229Z,72.60
2019-02-21T00:50:13.916Z,73.60
2019-02-21T00:54:19.597Z,72.90
2019-02-21T00:58:25.523Z,71.00
2019-02-21T01:02:31.223Z,73.30
2019-02-21T01:06:36.922Z,70.70
2019-02-21T01:10:42.596Z,72.70
2019-02-21T01:14:48.303Z,74.50
2019-02-21T01:18:54.094Z,72.40
2019-02-21T01:23:01.604Z,72.20
2019-02-21T01:27:07.514Z,73.00
2019-02-21T01:31:14.258Z,70.60
2019-02-21T01:35:19.955Z,73.40
2019-02-21T01:39:25.642Z,73.40
2019-02-21T01:43:31.347Z,72.20
2019-02-21T01:47:37.049Z,73.20
2019-02-21T01:51:42.729Z,72.20
2019-02-21T01:55:48.446Z,73.00
2019-02-21T01:59:54.279Z,72.90
2019-02-21T02:03:59.983Z,72.70
2019-02-21T02:08:05.794Z,73.40
2019-02-21T02:12:11.491Z,75.00
2019-02-21T02:16:17.222Z,74.10
2019-02-21T02:20:22.993Z,73.80
2019-02-21T02:24:28.688Z,73.80
2019-02-21T02:28:34.382Z,72.50
2019-02-21T02:32:40.089Z,73.70
2019-02-21T02:36:45.856Z,73.40
2019-02-21T02:40:51.534Z,73.50
2019-02-21T02:44:57.215Z,73.40
2019-02-21T02:49:02.911Z,72.50
2019-02-21T02:53:08.645Z,72.80
2019-02-21T02:57:14.340Z,73.70
2019-02-21T03:01:20.034Z,73.60
2019-02-21T03:05:25.719Z,75.30
2019-02-21T03:09:31.429Z,72.70
2019-02-21T03:13:37.099Z,75.40
2019-02-21T03:17:43.864Z,76.30
2019-02-21T03:21:49.549Z,77.80
2019-02-21T03:25:55.342Z,75.20
2019-02-21T03:30:02.047Z,73.90
2019-02-21T03:34:07.740Z,74.40
2019-02-21T03:38:13.435Z,73.50
2019-02-21T03:42:19.177Z,73.50
2019-02-21T03:46:24.897Z,71.40
2019-02-21T03:50:30.572Z,72.70
2019-02-21T03:54:36.516Z,74.90
2019-02-21T03:58:42.431Z,75.00
2019-02-21T04:02:48.277Z,74.90
2019-02-21T04:06:55.280Z,74.10
2019-02-21T04:11:00.940Z,76.60
2019-02-21T04:15:11.857Z,73.60
2019-02-21T04:19:17.534Z,72.20
2019-02-21T04:23:23.226Z,80.30
2019-02-21T04:27:28.911Z,74.20
2019-02-21T04:31:34.587Z,73.20
2019-02-21T04:35:40.279Z,72.60
2019-02-21T04:39:45.971Z,72.90
2019-02-21T04:43:51.813Z,75.40
2019-02-21T04:47:57.546Z,74.10
2019-02-21T04:52:03.227Z,72.90
2019-02-21T04:56:08.923Z,73.70
2019-02-21T05:00:14.677Z,76.30
2019-02-21T05:04:20.366Z,77.70
2019-02-21T05:08:26.061Z,74.20
2019-02-21T05:12:31.750Z,73.00
2019-02-21T05:16:37.432Z,77.20
2019-02-21T05:20:43.131Z,76.30
2019-02-21T05:24:49.004Z,76.20
2019-02-21T05:28:54.805Z,75.00
2019-02-21T05:33:14.229Z,72.70
2019-02-21T05:37:36.546Z,78.60
2019-02-21T05:41:43.979Z,74.40
2019-02-21T05:45:55.426Z,73.70
2019-02-21T05:50:05.409Z,73.30
2019-02-21T05:54:12.941Z,73.60
2019-02-21T05:58:23.509Z,75.80
2019-02-21T06:02:53.514Z,75.40
2019-02-21T06:06:57.738Z,76.90
2019-02-21T06:11:09.408Z,75.70
2019-02-21T06:15:18.308Z,75.50
2019-02-21T06:19:28.647Z,73.10
2019-02-21T06:23:39.489Z,76.00
2019-02-21T06:27:46.946Z,75.10
2019-02-21T06:31:54.397Z,77.10
2019-02-21T06:36:00.104Z,76.30
2019-02-21T06:40:07.809Z,74.60
2019-02-21T06:44:13.508Z,77.40
2019-02-21T06:48:22.893Z,76.20
2019-02-21T06:52:28.589Z,74.20
2019-02-21T06:56:34.263Z,73.40
2019-02-21T07:00:39.958Z,73.80
2019-02-21T07:04:45.728Z,75.10
2019-02-21T07:08:51.416Z,76.50
2019-02-21T07:12:57.102Z,76.30
2019-02-21T07:17:02.788Z,74.00
2019-02-21T07:21:08.549Z,75.30
2019-02-21T07:25:33.656Z,73.00
2019-02-21T07:29:39.345Z,71.20
2019-02-21T07:33:45.058Z,71.70
2019-02-21T15:15:27.802Z,46.70
2019-02-21T15:19:33.558Z,47.00
2019-02-21T15:23:39.332Z,47.10
2019-02-21T15:27:45.038Z,48.00
2019-02-21T15:31:50.851Z,48.10
2019-02-21T15:35:56.586Z,48.50
2019-02-21T15:40:02.275Z,48.20
2019-02-21T15:44:08.043Z,47.80
2019-02-21T15:48:13.765Z,48.50
2019-02-21T15:52:22.560Z,48.20
2019-02-21T15:56:26.916Z,49.20
2019-02-21T16:00:32.627Z,49.50
2019-02-21T16:04:38.337Z,49.40
2019-02-21T16:08:44.041Z,49.40
2019-02-21T16:12:50.735Z,50.90
2019-02-21T16:16:56.841Z,51.10
2019-02-21T16:21:02.549Z,51.70
2019-02-21T16:25:17.888Z,51.10
2019-02-21T16:29:25.841Z,50.80
2019-02-21T16:33:31.011Z,51.50
2019-02-21T16:37:36.688Z,51.80
2019-02-21T16:41:44.252Z,52.00
2019-02-21T16:45:53.941Z,52.40
2019-02-21T16:49:58.566Z,53.10
2019-02-21T16:54:04.274Z,53.50
2019-02-21T16:58:11.009Z,53.80
2019-02-21T17:08:15.534Z,54.80
2019-02-21T17:12:21.234Z,55.60
2019-02-21T17:17:17.843Z,56.70
2019-02-21T17:21:23.613Z,57.40
2019-02-21T17:26:17.260Z,58.40
2019-02-21T17:30:23.002Z,58.50
2019-02-21T17:35:16.909Z,57.60
2019-02-21T17:39:24.224Z,57.90
2019-02-21T17:43:29.924Z,58.10
2019-02-21T17:47:35.657Z,58.30
2019-02-21T17:51:42.615Z,58.20
2019-02-21T17:56:18.102Z,58.60
2019-02-21T18:00:28.822Z,57.80
2019-02-21T18:04:34.534Z,58.10
2019-02-21T18:08:40.244Z,57.90
2019-02-21T18:13:19.171Z,57.20
2019-02-21T18:17:26.533Z,57.20
2019-02-21T18:21:32.350Z,57.50
2019-02-21T18:26:17.220Z,57.00
2019-02-21T18:35:28.526Z,56.30
2019-02-21T18:39:34.227Z,56.60
2019-02-21T18:43:40.014Z,57.30
2019-02-21T18:47:45.696Z,57.30
2019-02-21T18:51:51.405Z,57.00
2019-02-21T18:55:57.158Z,57.90
2019-02-21T19:00:03.213Z,57.30
2019-02-21T19:04:10.615Z,55.30
2019-02-21T19:08:20.005Z,54.70
2019-02-21T19:12:25.726Z,58.80
2019-02-21T19:16:32.084Z,56.10
2019-02-21T19:20:37.858Z,58.20
2019-02-21T19:24:43.613Z,57.70
2019-02-21T19:28:49.487Z,56.50
2019-02-21T19:32:55.328Z,58.00
2019-02-21T19:37:01.164Z,57.80
2019-02-21T19:41:19.066Z,58.00
2019-02-21T19:45:26.413Z,57.50
2019-02-21T19:49:32.184Z,57.40
2019-02-21T19:53:37.919Z,57.80
2019-02-21T19:57:43.772Z,58.20
2019-02-21T20:01:50.542Z,58.70
2019-02-21T20:05:56.435Z,57.80
2019-02-21T20:10:02.359Z,57.60
2019-02-21T20:14:09.810Z,60.00
2019-02-21T20:18:24.282Z,58.20
2019-02-21T20:22:31.655Z,59.70
2019-02-21T20:26:37.393Z,59.50
2019-02-21T20:30:43.171Z,59.90
2019-02-21T20:34:49.100Z,59.00
2019-02-21T20:38:54.804Z,58.80
2019-02-21T20:43:00.626Z,61.20
2019-02-21T20:47:16.335Z,61.40
2019-02-21T20:51:22.036Z,58.80
2019-02-21T20:55:27.724Z,59.30
2019-02-21T20:59:33.431Z,60.30
2019-02-21T21:03:39.153Z,60.10
2019-02-21T21:07:44.966Z,60.70
2019-02-21T21:11:50.658Z,58.30
2019-02-21T21:15:56.361Z,59.30
2019-02-21T21:20:02.162Z,60.00
2019-02-21T21:24:18.538Z,58.40
2019-02-21T21:34:20.578Z,60.20
2019-02-21T21:43:20.412Z,60.10
2019-02-21T21:47:26.121Z,59.30
2019-02-21T21:51:33.965Z,58.70
2019-02-21T21:55:39.361Z,58.20
2019-02-21T21:59:45.042Z,59.00
2019-02-21T22:03:50.755Z,57.30
2019-02-21T22:07:56.504Z,57.10
2019-02-21T22:12:02.467Z,57.10
2019-02-21T22:16:08.156Z,58.00
2019-02-21T22:20:14.105Z,57.20
2019-02-21T22:24:19.803Z,57.80
2019-02-21T22:28:26.423Z,57.40
2019-02-21T22:32:33.096Z,57.40
2019-02-21T22:36:38.823Z,57.10
2019-02-21T22:40:44.546Z,57.20
2019-02-21T22:44:50.254Z,57.70
2019-02-21T22:48:55.962Z,58.40
2019-02-21T22:53:01.747Z,59.00
2019-02-21T22:57:07.434Z,58.60
2019-02-21T23:01:23.551Z,57.80
2019-02-21T23:05:56.760Z,59.20
2019-02-21T23:10:02.594Z,59.50
2019-02-21T23:14:12.154Z,58.30
2019-02-21T23:18:17.518Z,58.60
2019-02-21T23:22:23.213Z,59.10
2019-02-21T23:26:28.942Z,59.60
2019-02-21T23:30:35.718Z,59.50
2019-02-21T23:34:42.610Z,58.90
2019-02-21T23:38:48.358Z,59.20
2019-02-21T23:42:54.152Z,59.40
2019-02-21T23:47:00.093Z,59.30
2019-02-21T23:51:05.924Z,59.60
2019-02-21T23:55:11.674Z,59.60
2019-02-21T23:59:17.371Z,59.80
